Time;durP1;ratioP1;P1;durP2;ratioP2;P2;SDS_P1;SDS_P2;PMS_P1;PMS_P2;Temp;Humidity;BMP_temperature;BMP_pressure;BME280_temperature;BME280_humidity;BME280_pressure;Samples;Min_cycle;Max_cycle;Signal;HPM_P1;HPM_P2
2022/08/31 00:04:41;;;;;;;7.07;5.13;;;23.30;55.00;;;;;;5026915;28;20449;-70
2022/08/31 00:07:07;;;;;;;7.47;5.67;;;23.30;55.00;;;;;;5029244;28;20450;-71
2022/08/31 00:09:33;;;;;;;7.63;5.63;;;23.20;55.30;;;;;;5029826;28;20200;-72
2022/08/31 00:11:59;;;;;;;8.60;5.30;;;23.20;55.40;;;;;;5024610;28;20861;-71
2022/08/31 00:14:25;;;;;;;9.93;5.80;;;23.20;55.60;;;;;;5011017;28;20197;-70
2022/08/31 00:16:50;;;;;;;8.23;5.27;;;23.30;55.60;;;;;;5022133;28;20301;-70
2022/08/31 00:19:16;;;;;;;7.20;5.30;;;23.20;55.70;;;;;;5026184;28;20220;-72
2022/08/31 00:21:42;;;;;;;6.80;5.30;;;23.10;56.40;;;;;;5021353;28;20248;-70
2022/08/31 00:24:08;;;;;;;7.50;5.77;;;23.00;56.90;;;;;;5029264;28;20183;-71
2022/08/31 00:26:33;;;;;;;8.50;5.67;;;23.00;57.30;;;;;;5029310;28;20470;-70
2022/08/31 00:28:59;;;;;;;7.77;5.17;;;23.00;58.00;;;;;;5029368;28;20205;-71
2022/08/31 00:31:25;;;;;;;8.03;5.80;;;23.10;59.60;;;;;;5027390;28;20269;-72
2022/08/31 00:33:51;;;;;;;8.73;6.37;;;23.00;60.30;;;;;;5028875;28;20211;-70
2022/08/31 00:36:19;;;;;;;7.97;5.43;;;22.90;61.60;;;;;;5029408;28;20214;-71
2022/08/31 00:38:47;;;;;;;10.77;5.77;;;22.80;63.10;;;;;;5030020;28;20444;-69
2022/08/31 00:41:12;;;;;;;9.90;5.80;;;22.70;63.40;;;;;;5022673;28;20458;-70
2022/08/31 00:43:38;;;;;;;9.30;5.93;;;22.70;62.50;;;;;;5030034;28;20440;-71
2022/08/31 00:46:05;;;;;;;10.67;5.70;;;22.60;63.50;;;;;;5030157;28;20190;-70
2022/08/31 00:48:30;;;;;;;8.87;5.83;;;22.40;62.20;;;;;;5012550;28;20526;-72
2022/08/31 00:50:57;;;;;;;9.27;5.80;;;22.30;61.60;;;;;;5026484;28;20539;-71
2022/08/31 00:53:24;;;;;;;7.20;5.60;;;22.10;62.50;;;;;;5025330;28;20195;-71
2022/08/31 00:55:50;;;;;;;8.83;5.37;;;21.80;64.50;;;;;;5022373;28;20469;-70
2022/08/31 00:58:16;;;;;;;12.80;5.77;;;21.70;65.40;;;;;;5029277;28;20707;-70
2022/08/31 01:00:42;;;;;;;15.40;7.83;;;21.60;66.30;;;;;;5009114;28;21277;-71
2022/08/31 01:03:08;;;;;;;17.90;8.37;;;21.50;69.80;;;;;;5010685;28;20184;-71
2022/08/31 01:05:35;;;;;;;16.30;8.00;;;21.10;76.70;;;;;;5022861;28;20444;-69
2022/08/31 01:08:02;;;;;;;14.50;7.67;;;20.60;79.50;;;;;;5022614;28;20439;-69
2022/08/31 01:10:33;;;;;;;13.97;8.37;;;20.10;83.00;;;;;;5024641;28;20427;-71
2022/08/31 01:13:00;;;;;;;16.93;9.70;;;19.70;85.60;;;;;;5021708;28;20519;-71
2022/08/31 01:15:27;;;;;;;17.80;10.60;;;19.30;87.10;;;;;;5026207;28;20438;-71
2022/08/31 01:17:55;;;;;;;18.00;10.60;;;19.10;88.90;;;;;;5028041;28;20436;-70
2022/08/31 01:20:33;;;;;;;18.00;8.30;;;18.60;89.70;;;;;;5009814;28;20492;-71
2022/08/31 01:23:20;;;;;;;23.30;10.40;;;18.30;90.50;;;;;;5011073;28;20428;-70
2022/08/31 01:25:47;;;;;;;15.93;9.50;;;18.10;91.50;;;;;;5026151;28;20424;-70
2022/08/31 01:28:14;;;;;;;15.00;9.50;;;18.00;92.40;;;;;;5029119;28;20420;-70
2022/08/31 01:30:41;;;;;;;17.70;10.20;;;17.80;92.80;;;;;;5027923;28;20497;-72
2022/08/31 01:33:08;;;;;;;18.40;10.27;;;17.70;93.00;;;;;;5022835;28;20526;-69
2022/08/31 01:35:34;;;;;;;20.17;11.30;;;17.70;93.50;;;;;;5012861;28;20464;-70
2022/08/31 01:38:01;;;;;;;23.60;11.27;;;17.60;94.30;;;;;;5031691;28;21212;-68
2022/08/31 01:40:36;;;;;;;17.40;11.27;;;17.50;94.70;;;;;;5027387;28;20794;-70
2022/08/31 01:43:02;;;;;;;24.83;11.23;;;17.40;95.10;;;;;;5031378;28;20452;-69
2022/08/31 01:45:27;;;;;;;23.10;10.83;;;17.40;95.40;;;;;;5031692;28;20440;-70
2022/08/31 01:47:53;;;;;;;20.00;11.63;;;17.30;95.80;;;;;;5031699;28;20430;-70
2022/08/31 01:50:19;;;;;;;23.33;10.67;;;17.30;95.80;;;;;;5014095;28;20185;-71
2022/08/31 01:52:44;;;;;;;26.00;13.00;;;17.30;96.00;;;;;;5026243;28;20247;-69
2022/08/31 01:55:10;;;;;;;21.20;11.87;;;17.30;96.20;;;;;;5025233;28;20600;-71
2022/08/31 01:57:35;;;;;;;19.40;12.40;;;17.20;96.40;;;;;;5030227;28;20212;-71
2022/08/31 02:00:05;;;;;;;19.97;11.83;;;17.20;96.40;;;;;;5032374;28;20178;-71
2022/08/31 02:02:31;;;;;;;17.60;10.83;;;17.20;96.50;;;;;;5025731;28;20206;-69
2022/08/31 02:04:57;;;;;;;20.07;11.90;;;17.10;96.50;;;;;;5023584;28;20444;-69
2022/08/31 02:07:24;;;;;;;17.70;10.33;;;17.10;96.40;;;;;;5031377;28;20715;-70
2022/08/31 02:09:49;;;;;;;17.00;10.80;;;17.10;96.10;;;;;;5031011;28;20416;-71
2022/08/31 02:12:15;;;;;;;17.37;11.07;;;17.10;96.00;;;;;;5011029;28;20482;-70
2022/08/31 02:14:40;;;;;;;23.43;12.50;;;17.10;95.90;;;;;;5030352;28;20209;-70
2022/08/31 02:17:07;;;;;;;18.53;10.67;;;17.10;96.20;;;;;;5013995;28;20213;-71
2022/08/31 02:19:33;;;;;;;20.80;10.93;;;17.10;96.50;;;;;;5030007;28;20190;-70
2022/08/31 02:21:58;;;;;;;26.10;12.37;;;17.20;96.60;;;;;;5024478;28;20518;-69
2022/08/31 02:24:24;;;;;;;24.57;12.93;;;17.20;96.80;;;;;;5012996;28;20188;-69
2022/08/31 02:26:50;;;;;;;21.30;13.53;;;17.20;97.10;;;;;;5028404;28;20209;-69
2022/08/31 02:29:16;;;;;;;23.23;12.90;;;17.10;97.20;;;;;;5013651;28;20238;-70
2022/08/31 02:31:42;;;;;;;22.33;13.37;;;17.10;97.40;;;;;;5008222;28;20214;-70
2022/08/31 02:34:08;;;;;;;20.70;13.40;;;17.10;97.50;;;;;;5031199;28;20586;-71
2022/08/31 02:36:34;;;;;;;22.20;14.90;;;17.10;97.60;;;;;;5026032;28;20237;-70
2022/08/31 02:39:00;;;;;;;22.80;13.53;;;17.20;98.00;;;;;;5038417;28;20423;-70
2022/08/31 02:41:26;;;;;;;23.03;12.30;;;17.20;98.00;;;;;;5015583;28;20469;-69
2022/08/31 02:43:52;;;;;;;21.33;12.30;;;17.30;98.10;;;;;;5030477;28;20240;-69
2022/08/31 02:46:17;;;;;;;22.93;12.80;;;17.40;98.10;;;;;;5026182;28;20197;-70
2022/08/31 02:48:43;;;;;;;21.00;11.17;;;17.40;98.00;;;;;;5028713;28;20192;-70
2022/08/31 02:51:09;;;;;;;23.70;12.47;;;17.50;98.10;;;;;;5022346;28;20228;-70
2022/08/31 02:53:36;;;;;;;19.20;11.73;;;17.50;98.10;;;;;;5030299;28;20200;-72
2022/08/31 02:56:03;;;;;;;18.07;10.50;;;17.50;97.70;;;;;;5029311;28;20833;-70
2022/08/31 02:58:29;;;;;;;20.30;11.50;;;17.50;97.70;;;;;;5030963;28;20419;-70
2022/08/31 03:00:55;;;;;;;17.80;11.90;;;17.50;97.50;;;;;;5028563;28;20463;-70
2022/08/31 03:03:21;;;;;;;23.83;12.10;;;17.50;97.40;;;;;;5030502;28;20268;-70
2022/08/31 03:05:48;;;;;;;23.97;13.00;;;17.60;97.20;;;;;;5032251;28;20486;-70
2022/08/31 03:08:14;;;;;;;16.20;10.90;;;17.60;96.90;;;;;;5030841;28;20500;-70
2022/08/31 03:10:39;;;;;;;17.77;11.00;;;17.50;96.80;;;;;;5027798;28;20986;-72
2022/08/31 03:13:05;;;;;;;19.87;11.60;;;17.50;96.80;;;;;;5030395;28;20686;-71
2022/08/31 03:15:31;;;;;;;19.30;12.37;;;17.50;96.80;;;;;;5030184;28;20585;-72
2022/08/31 03:17:57;;;;;;;20.20;11.80;;;17.50;97.00;;;;;;5030464;28;20628;-71
2022/08/31 03:20:25;;;;;;;23.00;12.53;;;17.40;96.90;;;;;;5029516;28;20189;-72
2022/08/31 03:22:51;;;;;;;27.53;11.90;;;17.50;97.00;;;;;;5029340;28;20193;-70
2022/08/31 03:25:17;;;;;;;20.20;12.40;;;17.50;97.20;;;;;;5030138;28;20423;-70
2022/08/31 03:27:44;;;;;;;20.10;12.13;;;17.50;97.20;;;;;;5029957;28;20420;-70
2022/08/31 03:30:13;;;;;;;20.57;11.47;;;17.60;97.40;;;;;;5028712;28;20186;-72
2022/08/31 03:32:38;;;;;;;23.40;13.03;;;17.60;97.50;;;;;;5027652;28;20835;-69
2022/08/31 03:35:05;;;;;;;19.70;12.47;;;17.70;97.50;;;;;;5031513;28;20418;-71
2022/08/31 03:37:31;;;;;;;20.30;12.27;;;17.70;97.50;;;;;;5031679;28;20279;-70
2022/08/31 03:39:57;;;;;;;19.63;12.57;;;17.70;97.30;;;;;;5031739;28;20806;-69
2022/08/31 03:42:23;;;;;;;15.63;11.77;;;17.60;97.20;;;;;;5030350;28;20465;-68
2022/08/31 03:44:50;;;;;;;18.00;10.83;;;17.60;97.40;;;;;;5028823;28;20606;-70
2022/08/31 03:47:15;;;;;;;15.57;10.70;;;17.70;97.30;;;;;;5032555;28;20451;-69
2022/08/31 03:49:42;;;;;;;17.33;11.00;;;17.80;97.30;;;;;;5014796;28;20463;-71
2022/08/31 03:52:08;;;;;;;16.13;11.10;;;17.80;96.80;;;;;;5012687;28;20206;-71
2022/08/31 03:54:34;;;;;;;18.47;11.00;;;17.80;96.20;;;;;;5030800;28;20425;-72
2022/08/31 03:57:00;;;;;;;20.73;11.90;;;17.80;96.20;;;;;;5031660;28;20991;-70
2022/08/31 03:59:26;;;;;;;18.73;11.00;;;17.80;96.20;;;;;;5015734;28;20483;-70
2022/08/31 04:01:51;;;;;;;21.43;12.70;;;17.80;96.20;;;;;;5028372;28;20495;-70
2022/08/31 04:04:17;;;;;;;18.70;11.10;;;17.80;96.10;;;;;;5029413;28;20630;-70
2022/08/31 04:06:43;;;;;;;24.70;12.40;;;17.80;96.20;;;;;;5013772;28;20214;-70
2022/08/31 04:09:10;;;;;;;20.20;12.77;;;17.80;96.30;;;;;;5031107;28;20196;-73
2022/08/31 04:11:39;;;;;;;21.37;12.17;;;17.80;96.40;;;;;;5027459;28;20461;-71
2022/08/31 04:14:05;;;;;;;23.53;12.37;;;17.80;96.50;;;;;;5024404;28;20510;-71
2022/08/31 04:16:32;;;;;;;16.70;10.10;;;17.80;96.50;;;;;;5027300;28;20607;-70
2022/08/31 04:18:58;;;;;;;19.10;11.13;;;17.90;96.40;;;;;;5026202;28;20175;-69
2022/08/31 04:21:26;;;;;;;13.77;10.20;;;17.80;95.80;;;;;;5024400;28;20465;-71
2022/08/31 04:23:53;;;;;;;18.23;11.70;;;17.80;95.60;;;;;;5022841;28;20194;-70
2022/08/31 04:26:25;;;;;;;19.00;12.27;;;17.80;95.40;;;;;;5030537;28;20420;-70
2022/08/31 04:28:52;;;;;;;19.90;12.20;;;17.70;95.50;;;;;;5031850;28;20498;-70
2022/08/31 04:31:19;;;;;;;16.80;11.80;;;17.70;95.70;;;;;;5026799;28;20492;-70
2022/08/31 04:33:45;;;;;;;22.00;11.90;;;17.70;95.80;;;;;;5030993;28;20482;-70
2022/08/31 04:36:14;;;;;;;19.33;10.70;;;17.70;96.00;;;;;;5027292;28;20985;-69
2022/08/31 04:38:44;;;;;;;18.93;11.33;;;17.70;96.10;;;;;;5031084;28;20511;-70
2022/08/31 04:41:11;;;;;;;24.10;13.70;;;17.70;95.90;;;;;;5008361;28;20452;-70
2022/08/31 04:43:38;;;;;;;20.43;11.83;;;17.70;95.80;;;;;;5011773;28;20981;-69
2022/08/31 04:46:07;;;;;;;18.17;12.00;;;17.60;95.80;;;;;;5024228;28;20759;-69
2022/08/31 04:48:33;;;;;;;22.10;12.33;;;17.60;95.80;;;;;;5027223;28;20482;-69
2022/08/31 04:51:20;;;;;;;20.00;11.80;;;17.60;96.00;;;;;;5023871;28;21494;-71
2022/08/31 04:53:46;;;;;;;19.30;11.80;;;17.70;96.00;;;;;;5023367;28;20551;-71
2022/08/31 04:56:16;;;;;;;19.27;11.67;;;17.70;95.90;;;;;;5023288;28;20965;-70
2022/08/31 04:58:47;;;;;;;17.03;10.90;;;17.60;95.60;;;;;;5029583;28;20424;-68
2022/08/31 05:01:16;;;;;;;16.63;9.90;;;17.70;95.60;;;;;;5027945;28;20555;-70
2022/08/31 05:03:42;;;;;;;18.27;10.90;;;17.70;95.50;;;;;;5032996;28;20454;-70
2022/08/31 05:06:14;;;;;;;21.40;11.87;;;17.70;95.40;;;;;;5027177;28;20446;-69
2022/08/31 05:08:40;;;;;;;18.37;11.87;;;17.70;95.20;;;;;;5009822;28;20942;-72
2022/08/31 05:11:15;;;;;;;17.60;11.60;;;17.70;95.30;;;;;;5009115;28;20489;-71
2022/08/31 05:13:41;;;;;;;21.50;12.60;;;17.80;95.70;;;;;;5011974;28;20433;-71
2022/08/31 05:16:09;;;;;;;20.10;12.70;;;17.90;95.90;;;;;;5026460;28;20565;-70
2022/08/31 05:18:37;;;;;;;20.60;11.70;;;17.90;95.90;;;;;;5029084;28;20240;-69
2022/08/31 05:21:10;;;;;;;21.73;13.77;;;17.90;96.20;;;;;;5029168;28;20539;-71
2022/08/31 05:23:36;;;;;;;22.43;13.37;;;18.00;96.10;;;;;;5032284;28;20426;-73
2022/08/31 05:26:02;;;;;;;19.60;12.43;;;18.00;96.20;;;;;;5032206;28;20935;-70
2022/08/31 05:28:28;;;;;;;24.50;13.80;;;18.00;95.90;;;;;;5032682;28;20457;-71
2022/08/31 05:30:53;;;;;;;16.80;10.70;;;18.00;95.70;;;;;;5030102;28;20220;-70
2022/08/31 05:33:19;;;;;;;18.37;11.07;;;18.00;95.50;;;;;;5032698;28;20217;-70
2022/08/31 05:35:46;;;;;;;23.87;11.90;;;18.00;95.10;;;;;;5030817;28;20743;-72
2022/08/31 05:38:12;;;;;;;21.17;11.70;;;18.00;94.80;;;;;;5032778;28;20216;-70
2022/08/31 05:40:38;;;;;;;25.63;12.60;;;18.00;94.80;;;;;;5028502;28;20432;-69
2022/08/31 05:43:03;;;;;;;21.20;11.90;;;18.10;95.00;;;;;;5027781;28;20188;-72
2022/08/31 05:45:29;;;;;;;15.30;9.97;;;18.00;94.80;;;;;;5031849;28;20726;-71
2022/08/31 05:47:55;;;;;;;19.67;10.63;;;18.10;94.70;;;;;;5030693;28;20182;-71
2022/08/31 05:50:20;;;;;;;21.43;10.40;;;18.10;94.40;;;;;;5031702;28;20526;-74
2022/08/31 05:52:46;;;;;;;15.17;9.70;;;18.10;93.90;;;;;;5022250;28;20605;-70
2022/08/31 05:55:12;;;;;;;15.83;9.87;;;18.20;93.60;;;;;;5031113;28;20212;-71
2022/08/31 05:57:39;;;;;;;16.40;9.90;;;18.20;93.70;;;;;;5030120;28;20310;-69
2022/08/31 06:00:06;;;;;;;25.67;10.73;;;18.20;93.80;;;;;;5031777;28;20551;-70
2022/08/31 06:02:32;;;;;;;17.90;10.43;;;18.30;93.90;;;;;;5029613;28;20462;-71
2022/08/31 06:04:58;;;;;;;16.20;9.87;;;18.30;94.20;;;;;;5027003;28;20432;-71
2022/08/31 06:07:24;;;;;;;19.07;12.33;;;18.40;94.30;;;;;;5026587;28;20433;-72
2022/08/31 06:09:50;;;;;;;19.10;12.23;;;18.30;94.40;;;;;;5015618;28;20524;-72
2022/08/31 06:12:17;;;;;;;17.80;11.70;;;18.10;94.60;;;;;;5024925;28;20211;-70
2022/08/31 06:14:44;;;;;;;20.00;12.00;;;18.00;94.80;;;;;;5027449;28;20189;-70
2022/08/31 06:17:09;;;;;;;19.13;11.30;;;17.90;95.00;;;;;;5029864;28;20478;-73
2022/08/31 06:19:36;;;;;;;23.10;12.30;;;17.90;95.30;;;;;;5037569;28;20953;-71
2022/08/31 06:22:02;;;;;;;21.43;11.17;;;17.90;95.40;;;;;;5035056;28;20217;-71
2022/08/31 06:24:27;;;;;;;17.90;10.83;;;17.90;95.30;;;;;;5035875;28;21073;-70
2022/08/31 06:26:58;;;;;;;18.33;11.77;;;17.90;95.30;;;;;;5029292;28;20192;-70
2022/08/31 06:29:26;;;;;;;23.33;13.37;;;18.00;95.30;;;;;;5029832;28;20192;-70
2022/08/31 06:31:51;;;;;;;16.20;10.97;;;18.10;95.60;;;;;;5027495;28;20547;-69
2022/08/31 06:34:19;;;;;;;20.60;10.63;;;18.20;95.40;;;;;;5012726;28;21156;-71
2022/08/31 06:36:45;;;;;;;17.43;9.60;;;18.20;94.80;;;;;;5026248;28;20716;-70
2022/08/31 06:39:11;;;;;;;17.07;10.57;;;18.20;93.90;;;;;;5031793;28;20429;-71
2022/08/31 06:41:39;;;;;;;17.23;10.40;;;18.20;93.90;;;;;;5005661;28;20212;-71
2022/08/31 06:44:07;;;;;;;18.00;11.30;;;18.20;93.90;;;;;;5025082;28;20953;-70
2022/08/31 06:46:35;;;;;;;18.40;11.00;;;18.10;93.90;;;;;;5027056;28;20924;-69
2022/08/31 06:49:01;;;;;;;21.83;11.37;;;18.20;94.20;;;;;;5029293;28;20425;-70
2022/08/31 06:51:28;;;;;;;22.57;11.57;;;18.10;94.20;;;;;;5018876;28;20465;-70
2022/08/31 06:53:53;;;;;;;18.83;11.40;;;18.10;94.40;;;;;;5028530;28;20456;-70
2022/08/31 06:56:22;;;;;;;19.77;10.97;;;18.10;94.60;;;;;;5024231;28;20552;-69
2022/08/31 06:58:49;;;;;;;13.80;9.07;;;18.00;94.00;;;;;;5031376;28;20305;-70
2022/08/31 07:01:20;;;;;;;14.97;9.70;;;18.10;94.10;;;;;;5028225;28;20458;-70
2022/08/31 07:03:48;;;;;;;15.20;10.27;;;18.30;94.30;;;;;;5029930;28;20521;-70
2022/08/31 07:06:17;;;;;;;15.73;8.93;;;18.30;94.10;;;;;;5012618;28;20469;-70
2022/08/31 07:08:44;;;;;;;17.63;10.03;;;18.30;93.00;;;;;;5030143;28;20421;-70
2022/08/31 07:11:13;;;;;;;16.57;9.60;;;18.40;92.90;;;;;;5026642;28;20486;-70
2022/08/31 07:13:40;;;;;;;16.97;10.57;;;18.50;92.80;;;;;;5031000;28;20475;-71
2022/08/31 07:16:09;;;;;;;16.40;11.23;;;18.50;92.80;;;;;;5024055;28;20528;-69
2022/08/31 07:18:35;;;;;;;19.90;11.10;;;18.50;92.80;;;;;;5027875;28;20929;-70
2022/08/31 07:21:17;;;;;;;16.87;10.93;;;18.50;93.00;;;;;;5027741;28;20503;-69
2022/08/31 07:23:44;;;;;;;16.77;11.23;;;18.50;92.90;;;;;;5028834;28;20184;-70
2022/08/31 07:26:13;;;;;;;20.40;11.20;;;18.50;93.10;;;;;;5011875;28;20720;-69
2022/08/31 07:28:42;;;;;;;15.53;10.33;;;18.50;93.10;;;;;;5011136;28;20462;-71
2022/08/31 07:31:09;;;;;;;14.63;10.57;;;18.50;93.40;;;;;;5022625;28;20462;-70
2022/08/31 07:33:37;;;;;;;20.40;10.83;;;18.60;93.60;;;;;;5025457;28;20453;-70
2022/08/31 07:36:06;;;;;;;17.83;10.13;;;18.70;93.30;;;;;;5028037;28;20465;-71
2022/08/31 07:44:01;;;;;;;14.50;9.70;;;18.60;91.80;;;;;;5029131;28;20438;-73
2022/08/31 07:46:30;;;;;;;16.53;9.33;;;18.60;91.50;;;;;;5026876;28;20782;-71
2022/08/31 07:48:56;;;;;;;16.03;9.20;;;18.50;90.90;;;;;;5031702;28;20220;-71
2022/08/31 07:51:22;;;;;;;18.20;10.03;;;18.40;91.00;;;;;;5028421;28;20467;-72
2022/08/31 07:53:49;;;;;;;16.33;10.20;;;18.40;90.60;;;;;;5029849;28;20988;-74
2022/08/31 07:56:19;;;;;;;17.50;10.77;;;18.40;90.60;;;;;;5028359;28;20511;-71
2022/08/31 07:58:48;;;;;;;13.03;9.80;;;18.40;90.50;;;;;;5029640;28;20420;-71
2022/08/31 08:01:16;;;;;;;16.50;10.53;;;18.40;90.50;;;;;;5026766;28;21091;-71
2022/08/31 08:03:43;;;;;;;18.70;11.00;;;18.50;90.70;;;;;;5028662;28;20430;-71
2022/08/31 08:06:11;;;;;;;17.37;10.13;;;18.50;90.60;;;;;;5025540;28;20427;-71
2022/08/31 08:08:39;;;;;;;16.73;9.67;;;18.40;89.70;;;;;;5027446;28;20574;-72
2022/08/31 08:11:05;;;;;;;17.17;10.53;;;18.50;90.30;;;;;;5026140;28;20457;-72
2022/08/31 08:13:31;;;;;;;16.00;10.50;;;18.60;90.20;;;;;;5027696;28;20794;-71
2022/08/31 08:15:57;;;;;;;16.03;10.03;;;18.50;89.70;;;;;;5027401;28;20711;-71
2022/08/31 08:18:23;;;;;;;16.70;10.27;;;18.40;89.30;;;;;;5027534;28;20449;-72
2022/08/31 08:20:49;;;;;;;18.00;10.40;;;18.60;90.50;;;;;;5024019;28;20572;-71
2022/08/31 08:23:15;;;;;;;18.23;10.40;;;18.70;89.90;;;;;;5025246;28;20185;-71
2022/08/31 08:25:41;;;;;;;17.47;10.80;;;18.60;89.70;;;;;;5022221;28;20435;-72
2022/08/31 08:28:07;;;;;;;13.70;9.40;;;18.50;90.30;;;;;;5024669;28;20480;-70
2022/08/31 08:30:33;;;;;;;15.77;10.20;;;18.40;89.50;;;;;;5022471;28;20420;-72
2022/08/31 08:33:02;;;;;;;16.70;11.67;;;18.60;90.40;;;;;;5023278;28;20298;-71
2022/08/31 08:35:29;;;;;;;18.97;12.00;;;18.40;91.00;;;;;;5023811;28;20195;-71
2022/08/31 08:37:56;;;;;;;19.07;11.43;;;18.40;91.50;;;;;;5024203;28;20411;-72
2022/08/31 08:40:41;;;;;;;19.10;11.90;;;18.50;91.70;;;;;;5023117;28;20432;-71
2022/08/31 08:43:14;;;;;;;17.47;10.77;;;18.70;91.90;;;;;;5017619;28;20417;-71
2022/08/31 08:45:45;;;;;;;16.63;11.27;;;18.80;91.10;;;;;;5023974;28;20957;-71
2022/08/31 08:48:13;;;;;;;20.30;12.20;;;18.80;91.20;;;;;;5019720;28;20412;-71
2022/08/31 08:50:40;;;;;;;21.13;11.80;;;18.90;91.20;;;;;;5027127;28;20486;-73
2022/08/31 08:53:09;;;;;;;17.87;10.63;;;18.90;91.00;;;;;;5024279;28;20484;-70
2022/08/31 08:55:37;;;;;;;16.40;10.70;;;18.90;91.20;;;;;;5006192;28;20978;-70
2022/08/31 08:58:06;;;;;;;18.43;10.50;;;18.90;91.30;;;;;;5029064;28;20461;-72
2022/08/31 09:00:33;;;;;;;22.20;12.60;;;19.00;90.70;;;;;;5007753;28;20972;-72
2022/08/31 09:03:14;;;;;;;24.73;12.87;;;19.10;90.50;;;;;;5027889;28;21250;-71
2022/08/31 09:06:24;;;;;;;18.17;11.33;;;19.00;91.00;;;;;;5025576;28;20421;-73
2022/08/31 09:09:07;;;;;;;18.07;11.10;;;19.00;91.40;;;;;;4944454;28;20514;-72
2022/08/31 09:11:49;;;;;;;16.60;10.67;;;19.00;91.40;;;;;;4955708;28;20942;-71
2022/08/31 09:14:29;;;;;;;18.03;11.30;;;19.20;91.40;;;;;;4938800;28;20435;-71
2022/08/31 09:17:15;;;;;;;29.70;12.67;;;19.40;91.00;;;;;;4942136;28;20494;-71
2022/08/31 09:20:00;;;;;;;16.50;11.20;;;19.30;90.20;;;;;;4943283;28;20452;-72
2022/08/31 09:22:28;;;;;;;19.63;13.23;;;19.30;88.30;;;;;;4934482;28;20475;-72
2022/08/31 09:24:58;;;;;;;18.47;11.90;;;19.20;89.30;;;;;;4944015;28;21406;-72
2022/08/31 09:27:44;;;;;;;17.03;11.57;;;19.20;88.60;;;;;;4925433;28;20441;-72
2022/08/31 09:30:12;;;;;;;20.43;13.00;;;19.00;89.20;;;;;;4948016;28;20442;-71
2022/08/31 09:32:38;;;;;;;21.37;13.10;;;18.90;89.60;;;;;;4929947;29;20846;-70
2022/08/31 09:35:08;;;;;;;19.17;12.70;;;18.70;89.70;;;;;;4948896;28;20520;-72
2022/08/31 09:37:47;;;;;;;18.37;12.17;;;18.80;90.40;;;;;;4938014;28;20214;-70
2022/08/31 09:40:20;;;;;;;18.47;12.13;;;18.80;89.70;;;;;;4948352;28;20437;-70
2022/08/31 09:42:59;;;;;;;17.07;11.77;;;18.70;89.50;;;;;;4989454;28;21001;-72
2022/08/31 09:45:34;;;;;;;22.37;12.27;;;18.80;89.90;;;;;;5023022;28;21267;-71
2022/08/31 09:48:00;;;;;;;18.70;12.27;;;18.80;89.30;;;;;;5025972;28;20445;-71
2022/08/31 09:50:29;;;;;;;18.70;12.50;;;18.80;88.70;;;;;;5031426;28;20683;-73
2022/08/31 09:56:21;;;;;;;19.40;11.50;;;18.80;88.60;;;;;;4988120;28;20461;-70
2022/08/31 09:58:56;;;;;;;15.83;11.97;;;18.80;87.30;;;;;;5036221;28;20451;-70
2022/08/31 10:01:42;;;;;;;18.83;12.00;;;18.80;88.00;;;;;;5037893;28;20456;-71
2022/08/31 10:04:19;;;;;;;20.27;11.47;;;18.70;87.70;;;;;;5032914;28;20417;-70
2022/08/31 10:07:08;;;;;;;20.37;11.43;;;18.70;87.60;;;;;;5026911;28;20512;-72
2022/08/31 10:09:45;;;;;;;16.57;10.70;;;18.80;86.80;;;;;;5032507;28;20471;-73
2022/08/31 10:12:21;;;;;;;17.30;11.03;;;18.90;84.90;;;;;;5021876;28;20465;-71
2022/08/31 10:14:54;;;;;;;16.03;10.00;;;19.10;84.30;;;;;;5028783;28;20423;-72
2022/08/31 10:17:32;;;;;;;13.10;10.20;;;19.40;84.00;;;;;;5026440;28;20464;-71
2022/08/31 10:20:06;;;;;;;16.23;10.00;;;19.50;80.60;;;;;;5031145;28;20505;-72
2022/08/31 10:22:40;;;;;;;18.23;10.00;;;19.60;79.30;;;;;;5028048;28;20454;-72
2022/08/31 10:25:39;;;;;;;15.47;10.30;;;19.50;79.90;;;;;;5026280;28;20465;-71
2022/08/31 10:28:15;;;;;;;14.20;9.43;;;19.40;80.30;;;;;;5032046;28;20446;-72
2022/08/31 10:30:58;;;;;;;15.90;10.40;;;19.70;79.60;;;;;;5027359;28;21008;-72
2022/08/31 10:35:01;;;;;;;14.27;9.07;;;20.00;79.70;;;;;;5030051;28;20440;-70
2022/08/31 10:36:16;;;;;;;17.20;10.10;;;20.20;78.60;;;;;;5029433;28;20472;-72
2022/08/31 10:38:46;;;;;;;15.77;9.87;;;20.10;76.70;;;;;;5032217;28;20761;-71
2022/08/31 10:41:27;;;;;;;13.83;8.97;;;20.10;78.10;;;;;;5024162;28;20458;-72
2022/08/31 10:44:05;;;;;;;14.97;9.10;;;20.10;78.30;;;;;;5027964;28;20469;-71
2022/08/31 10:46:33;;;;;;;15.00;9.73;;;20.40;77.40;;;;;;5026727;28;20430;-71
2022/08/31 10:49:03;;;;;;;15.30;10.20;;;20.60;76.70;;;;;;5031111;28;20432;-71
2022/08/31 10:51:49;;;;;;;17.50;10.60;;;20.00;77.10;;;;;;5021248;28;20497;-71
2022/08/31 10:54:32;;;;;;;15.10;9.67;;;20.10;77.10;;;;;;5023118;28;20548;-70
2022/08/31 10:57:22;;;;;;;14.80;9.77;;;19.90;77.70;;;;;;5028615;28;20470;-70
2022/08/31 11:00:07;;;;;;;14.83;10.33;;;19.40;78.40;;;;;;5029457;28;20451;-72
2022/08/31 11:02:59;;;;;;;19.43;10.60;;;19.40;78.90;;;;;;5028629;28;20474;-73
2022/08/31 11:05:34;;;;;;;18.83;10.03;;;19.30;79.70;;;;;;5012431;28;21299;-71
2022/08/31 11:08:24;;;;;;;16.80;10.80;;;19.30;79.50;;;;;;5026187;28;20459;-70
2022/08/31 11:10:52;;;;;;;14.70;9.70;;;19.50;79.70;;;;;;5012114;28;20470;-70
2022/08/31 11:13:52;;;;;;;20.27;9.70;;;19.60;79.30;;;;;;5032593;28;20464;-71
2022/08/31 11:16:25;;;;;;;16.00;10.37;;;19.60;80.20;;;;;;5032611;28;20464;-72
2022/08/31 11:19:11;;;;;;;14.40;10.80;;;19.70;80.80;;;;;;5032876;28;20439;-71
2022/08/31 11:22:01;;;;;;;17.20;10.23;;;19.80;79.30;;;;;;5026968;28;20466;-71
2022/08/31 11:24:54;;;;;;;17.17;10.63;;;19.80;78.90;;;;;;5026106;28;20423;-71
2022/08/31 11:27:32;;;;;;;19.43;11.23;;;19.60;79.60;;;;;;5031375;28;20431;-71
2022/08/31 11:30:25;;;;;;;15.80;9.83;;;19.50;80.80;;;;;;5032329;28;20495;-70
2022/08/31 11:32:54;;;;;;;14.40;9.67;;;19.70;81.50;;;;;;5024165;28;20437;-71
2022/08/31 11:36:02;;;;;;;23.53;9.90;;;19.90;80.90;;;;;;5026944;28;20915;-70
2022/08/31 11:38:47;;;;;;;14.30;10.83;;;19.90;79.70;;;;;;5025363;28;20438;-69
2022/08/31 11:41:47;;;;;;;17.23;9.60;;;19.90;79.30;;;;;;5020353;28;20461;-71
2022/08/31 11:44:58;;;;;;;20.63;9.83;;;19.70;79.50;;;;;;5022030;28;20443;-73
2022/08/31 11:47:27;;;;;;;18.60;10.70;;;19.80;79.30;;;;;;4944291;28;20434;-70
2022/08/31 11:49:54;;;;;;;16.60;10.93;;;19.60;78.60;;;;;;4949617;29;20432;-72
2022/08/31 11:52:23;;;;;;;18.73;10.70;;;19.70;79.50;;;;;;4945357;29;20478;-70
2022/08/31 11:54:49;;;;;;;16.00;10.60;;;19.80;79.30;;;;;;4948476;29;20444;-72
2022/08/31 11:57:22;;;;;;;14.53;9.73;;;19.80;79.20;;;;;;4949343;29;20566;-73
2022/08/31 11:59:49;;;;;;;17.20;10.53;;;19.90;78.60;;;;;;4948997;28;20435;-71
2022/08/31 12:02:21;;;;;;;15.97;9.97;;;19.90;78.60;;;;;;4946249;29;20786;-70
2022/08/31 12:04:57;;;;;;;16.13;9.20;;;20.00;78.60;;;;;;4948445;29;20446;-71
2022/08/31 12:07:34;;;;;;;16.20;10.70;;;20.10;78.10;;;;;;4949782;28;20435;-71
2022/08/31 12:10:18;;;;;;;17.90;9.73;;;20.10;78.10;;;;;;4948305;29;20671;-70
2022/08/31 12:13:17;;;;;;;22.60;10.47;;;20.20;78.40;;;;;;4945288;28;20530;-71
2022/08/31 12:15:59;;;;;;;18.13;9.73;;;20.20;77.00;;;;;;4945779;29;20483;-70
2022/08/31 12:18:37;;;;;;;15.60;10.30;;;20.10;77.80;;;;;;4948970;29;21192;-71
2022/08/31 12:24:31;;;;;;;16.67;9.33;;;19.80;79.00;;;;;;5021782;28;20746;-71
2022/08/31 12:27:11;;;;;;;25.23;10.10;;;19.90;79.00;;;;;;5010621;28;20440;-70
2022/08/31 12:29:39;;;;;;;18.70;10.20;;;20.00;78.60;;;;;;5029943;28;20444;-69
2022/08/31 12:32:19;;;;;;;15.80;10.20;;;20.00;78.30;;;;;;5020794;28;20460;-72
2022/08/31 12:35:04;;;;;;;13.00;8.70;;;20.10;78.70;;;;;;5024873;28;20423;-72
2022/08/31 12:37:36;;;;;;;12.50;8.63;;;20.50;77.70;;;;;;5028191;28;20512;-71
2022/08/31 12:40:18;;;;;;;16.03;10.10;;;20.90;77.10;;;;;;5030751;28;20423;-71
2022/08/31 12:42:53;;;;;;;18.20;10.67;;;21.10;75.50;;;;;;5022808;28;20985;-70
2022/08/31 12:45:29;;;;;;;18.67;11.33;;;21.10;74.80;;;;;;5026182;28;20452;-72
2022/08/31 12:48:43;;;;;;;13.40;9.47;;;21.20;73.60;;;;;;5011813;28;21280;-70
2022/08/31 12:51:14;;;;;;;17.00;11.07;;;21.10;73.30;;;;;;4949460;28;21124;-72
2022/08/31 12:54:05;;;;;;;15.80;10.60;;;20.80;74.80;;;;;;5028956;28;20789;-71
2022/08/31 12:56:51;;;;;;;18.33;10.60;;;20.60;75.40;;;;;;5020013;28;20473;-71
2022/08/31 12:59:31;;;;;;;20.27;11.10;;;20.70;76.20;;;;;;5022670;28;20432;-70
2022/08/31 13:01:59;;;;;;;16.10;10.30;;;20.80;75.20;;;;;;5024336;28;20556;-70
2022/08/31 13:04:26;;;;;;;16.57;11.10;;;21.00;74.20;;;;;;5024983;28;20437;-70